createdAt,value
2022-10-20T00:01:53.209Z,13.20
2022-10-20T00:04:29.831Z,13.00
2022-10-20T00:06:57.646Z,12.80
2022-10-20T00:09:37.791Z,12.80
2022-10-20T00:12:10.711Z,12.70
2022-10-20T00:14:40.437Z,12.60
2022-10-20T00:17:07.008Z,12.60
2022-10-20T00:19:33.807Z,12.50
2022-10-20T00:22:01.581Z,12.50
2022-10-20T00:24:33.976Z,12.40
2022-10-20T00:27:08.338Z,12.50
2022-10-20T00:29:40.317Z,12.40
2022-10-20T00:32:39.425Z,12.40
2022-10-20T00:35:22.872Z,12.40
2022-10-20T00:37:49.877Z,12.40
2022-10-20T00:40:19.793Z,12.40
2022-10-20T00:42:52.430Z,12.40
2022-10-20T00:45:29.446Z,12.40
2022-10-20T00:47:59.622Z,12.40
2022-10-20T00:50:42.725Z,12.40
2022-10-20T00:53:29.360Z,12.40
2022-10-20T00:56:24.806Z,12.40
2022-10-20T00:58:51.922Z,12.30
2022-10-20T01:01:27.148Z,12.40
2022-10-20T01:04:19.483Z,12.40
2022-10-20T01:06:47.418Z,12.30
2022-10-20T01:09:14.550Z,12.30
2022-10-20T01:15:38.497Z,12.40
2022-10-20T01:18:21.347Z,12.40
2022-10-20T01:21:10.400Z,12.40
2022-10-20T01:24:15.141Z,12.40
2022-10-20T01:26:59.268Z,12.50
2022-10-20T01:29:49.237Z,12.60
2022-10-20T01:32:36.270Z,12.60
2022-10-20T01:35:21.726Z,12.70
2022-10-20T01:38:28.180Z,12.70
2022-10-20T01:41:21.583Z,12.70
2022-10-20T01:43:51.869Z,12.70
2022-10-20T01:49:07.568Z,12.70
2022-10-20T01:51:36.464Z,12.70
2022-10-20T01:54:41.133Z,12.70
2022-10-20T01:57:19.805Z,12.80
2022-10-20T01:59:55.833Z,12.70
2022-10-20T02:03:05.736Z,12.80
2022-10-20T02:05:44.585Z,12.80
2022-10-20T02:08:30.079Z,12.80
2022-10-20T02:21:19.467Z,12.90
2022-10-20T02:23:51.619Z,12.80
2022-10-20T02:26:22.839Z,13.00
2022-10-20T02:29:12.875Z,13.00
2022-10-20T02:31:39.968Z,13.00
2022-10-20T02:34:09.004Z,12.80
2022-10-20T02:36:40.480Z,12.90
2022-10-20T02:39:11.577Z,13.10
2022-10-20T02:41:45.399Z,13.00
2022-10-20T02:47:38.818Z,12.80
2022-10-20T02:50:08.313Z,12.80
2022-10-20T02:52:37.924Z,12.90
2022-10-20T02:55:06.371Z,13.10
2022-10-20T02:57:46.273Z,13.10
2022-10-20T03:00:15.466Z,13.10
2022-10-20T03:02:43.289Z,13.00
2022-10-20T03:05:14.307Z,13.10
2022-10-20T03:07:44.473Z,13.10
2022-10-20T03:10:13.449Z,13.10
2022-10-20T03:12:45.954Z,13.10
2022-10-20T03:15:34.600Z,13.00
2022-10-20T03:18:07.412Z,12.90
2022-10-20T03:20:36.784Z,12.80
2022-10-20T03:23:05.530Z,12.70
2022-10-20T03:25:33.451Z,12.80
2022-10-20T03:28:06.169Z,12.90
2022-10-20T03:30:34.264Z,12.90
2022-10-20T03:33:08.066Z,13.00
2022-10-20T03:35:37.981Z,13.10
2022-10-20T03:38:05.836Z,13.30
2022-10-20T03:40:45.592Z,13.60
2022-10-20T03:43:19.251Z,13.60
2022-10-20T03:49:33.937Z,13.30
2022-10-20T03:52:11.701Z,12.90
2022-10-20T03:55:19.232Z,12.70
2022-10-20T03:57:54.942Z,12.60
2022-10-20T04:00:21.591Z,12.60
2022-10-20T04:03:35.706Z,12.40
2022-10-20T04:06:08.489Z,12.30
2022-10-20T04:08:44.637Z,12.20
2022-10-20T04:11:26.900Z,12.10
2022-10-20T04:13:54.271Z,12.10
2022-10-20T04:16:22.150Z,12.20
2022-10-20T04:18:54.484Z,12.10
2022-10-20T04:21:44.511Z,12.20
2022-10-20T04:24:13.574Z,12.40
2022-10-20T04:26:40.716Z,12.50
2022-10-20T04:29:08.464Z,12.60
2022-10-20T04:31:56.943Z,12.80
2022-10-20T04:35:12.146Z,13.10
2022-10-20T04:37:44.985Z,13.20
2022-10-20T04:40:12.839Z,13.20
2022-10-20T04:42:45.515Z,13.30
2022-10-20T04:45:14.396Z,13.40
2022-10-20T04:47:42.230Z,13.50
2022-10-20T04:50:09.674Z,13.50
2022-10-20T04:52:43.622Z,13.60
2022-10-20T04:55:16.370Z,13.70
2022-10-20T04:57:46.399Z,13.80
2022-10-20T05:00:15.082Z,13.90
2022-10-20T05:03:35.734Z,14.00
2022-10-20T05:06:17.485Z,14.10
2022-10-20T05:08:55.857Z,14.20
2022-10-20T05:11:25.292Z,14.10
2022-10-20T05:13:55.705Z,14.10
2022-10-20T05:16:47.625Z,14.20
2022-10-20T05:19:39.174Z,14.10
2022-10-20T05:22:07.077Z,14.10
2022-10-20T05:24:34.874Z,14.10
2022-10-20T05:27:02.948Z,14.20
2022-10-20T05:29:29.904Z,14.40
2022-10-20T05:32:10.693Z,14.40
2022-10-20T05:34:47.658Z,14.40
2022-10-20T05:39:49.740Z,14.50
2022-10-20T05:45:59.010Z,14.70
2022-10-20T05:48:25.622Z,14.50
2022-10-20T05:50:52.661Z,14.50
2022-10-20T05:53:40.105Z,14.50
2022-10-20T05:56:13.077Z,14.50
2022-10-20T05:58:40.586Z,14.50
2022-10-20T06:01:38.711Z,14.50
2022-10-20T06:04:12.516Z,14.40
2022-10-20T06:06:54.900Z,14.60
2022-10-20T06:09:24.813Z,14.60
2022-10-20T06:11:54.552Z,14.70
2022-10-20T06:14:23.357Z,14.80
2022-10-20T06:16:52.161Z,14.70
2022-10-20T06:19:23.866Z,14.60
2022-10-20T06:21:51.364Z,14.70
2022-10-20T06:24:19.528Z,14.80
2022-10-20T06:26:46.636Z,14.70
2022-10-20T06:29:20.510Z,14.80
2022-10-20T06:32:02.504Z,14.80
2022-10-20T06:34:31.625Z,14.80
2022-10-20T06:36:58.636Z,14.90
2022-10-20T06:39:25.924Z,15.00
2022-10-20T06:41:58.894Z,15.10
2022-10-20T06:44:31.654Z,15.00
2022-10-20T06:46:58.706Z,15.10
2022-10-20T06:49:25.821Z,15.10
2022-10-20T06:51:59.793Z,15.10
2022-10-20T06:54:29.789Z,15.20
2022-10-20T06:56:57.557Z,15.20
2022-10-20T06:59:24.560Z,15.20
2022-10-20T07:01:58.741Z,15.20
2022-10-20T07:04:27.674Z,15.20
2022-10-20T07:06:55.680Z,15.20
2022-10-20T07:09:28.124Z,15.30
2022-10-20T07:11:57.916Z,15.30
2022-10-20T07:14:26.293Z,15.30
2022-10-20T07:16:56.188Z,15.40
2022-10-20T07:19:47.853Z,15.40
2022-10-20T07:22:14.757Z,15.40
2022-10-20T07:24:59.342Z,15.40
2022-10-20T07:27:32.009Z,15.40
2022-10-20T07:30:10.093Z,15.40
2022-10-20T07:32:37.275Z,15.50
2022-10-20T07:35:13.330Z,15.50
2022-10-20T07:37:43.398Z,15.50
2022-10-20T07:40:11.032Z,15.60
2022-10-20T07:43:12.065Z,15.50
2022-10-20T07:45:40.108Z,15.60
2022-10-20T07:48:09.775Z,15.50
2022-10-20T07:50:38.103Z,15.60
2022-10-20T07:53:12.235Z,15.60
2022-10-20T07:55:55.272Z,15.60
2022-10-20T07:58:23.151Z,15.70
2022-10-20T08:00:49.765Z,15.80
2022-10-20T08:03:19.785Z,15.80
2022-10-20T08:05:46.794Z,15.80
2022-10-20T08:08:13.800Z,15.80
2022-10-20T08:10:40.540Z,15.70
2022-10-20T08:13:07.575Z,15.60
2022-10-20T08:15:37.465Z,15.40
2022-10-20T08:18:04.717Z,15.20
2022-10-20T08:20:42.620Z,15.30
2022-10-20T08:23:09.703Z,15.40
2022-10-20T08:25:36.670Z,15.50
2022-10-20T08:28:03.400Z,15.40
2022-10-20T08:30:30.516Z,15.40
2022-10-20T08:32:57.684Z,15.50
2022-10-20T08:35:24.817Z,15.50
2022-10-20T08:37:51.993Z,15.60
2022-10-20T08:40:25.016Z,15.80
2022-10-20T08:42:52.357Z,15.80
2022-10-20T08:45:25.457Z,15.80
2022-10-20T08:47:55.221Z,15.70
2022-10-20T08:50:23.339Z,15.60
2022-10-20T08:52:56.266Z,15.60
2022-10-20T08:55:33.589Z,15.60
2022-10-20T08:58:12.673Z,15.60
2022-10-20T09:00:40.482Z,15.60
2022-10-20T09:03:18.411Z,15.60
2022-10-20T09:06:02.745Z,15.80
2022-10-20T09:08:31.205Z,15.80
2022-10-20T09:10:58.998Z,15.80
2022-10-20T09:13:30.817Z,15.80
2022-10-20T09:16:33.437Z,15.80
2022-10-20T09:19:18.717Z,15.80
2022-10-20T09:21:50.759Z,15.90
2022-10-20T09:24:21.749Z,15.80
2022-10-20T09:26:59.036Z,15.90
2022-10-20T09:29:38.656Z,15.90
2022-10-20T09:32:44.846Z,16.00
2022-10-20T09:35:23.513Z,16.00
2022-10-20T09:38:01.217Z,16.00
2022-10-20T09:40:29.929Z,16.10
2022-10-20T09:43:15.245Z,16.30
2022-10-20T09:45:55.912Z,16.30
2022-10-20T09:48:36.506Z,16.40
2022-10-20T09:51:07.130Z,16.60
2022-10-20T09:53:41.388Z,16.80
2022-10-20T09:56:10.005Z,16.90
2022-10-20T09:58:39.122Z,17.10
2022-10-20T10:01:15.386Z,17.10
2022-10-20T10:03:47.673Z,17.20
2022-10-20T10:06:38.057Z,17.20
2022-10-20T10:09:31.838Z,17.30
2022-10-20T10:12:05.263Z,17.40
2022-10-20T10:14:36.344Z,17.50
2022-10-20T10:17:04.545Z,17.70
2022-10-20T10:19:33.109Z,18.00
2022-10-20T10:22:04.315Z,18.10
2022-10-20T10:24:48.367Z,18.10
2022-10-20T10:27:21.870Z,18.00
2022-10-20T10:29:50.174Z,17.80
2022-10-20T10:32:26.909Z,17.70
2022-10-20T10:35:37.716Z,17.50
2022-10-20T10:38:16.736Z,17.40
2022-10-20T10:41:06.589Z,17.40
2022-10-20T10:44:08.108Z,17.30
2022-10-20T10:49:16.757Z,17.50
2022-10-20T10:52:09.228Z,17.50
2022-10-20T10:55:47.278Z,17.50
2022-10-20T10:58:49.043Z,17.50
2022-10-20T11:01:46.085Z,18.00
2022-10-20T11:04:22.745Z,18.90
2022-10-20T11:07:11.970Z,19.90
2022-10-20T11:10:10.836Z,19.80
2022-10-20T11:12:46.963Z,20.40
2022-10-20T11:15:28.944Z,21.10
2022-10-20T11:18:18.021Z,21.50
2022-10-20T11:21:20.424Z,21.40
2022-10-20T11:24:01.037Z,22.30
2022-10-20T11:26:39.277Z,22.30
2022-10-20T11:29:16.617Z,22.40
2022-10-20T11:32:14.369Z,22.60
2022-10-20T11:34:58.777Z,22.60
2022-10-20T11:37:43.048Z,21.90
2022-10-20T11:40:09.985Z,21.70
2022-10-20T11:42:50.305Z,22.40
2022-10-20T11:45:32.646Z,23.50
2022-10-20T11:48:11.256Z,23.30
2022-10-20T11:50:42.218Z,22.90
2022-10-20T11:53:23.884Z,23.00
2022-10-20T11:56:35.064Z,22.30
2022-10-20T11:59:01.785Z,23.20
2022-10-20T12:01:43.859Z,24.30
2022-10-20T12:04:37.946Z,24.80
2022-10-20T12:07:44.881Z,24.90
2022-10-20T12:10:33.321Z,25.70
2022-10-20T12:13:33.705Z,25.60
2022-10-20T12:16:00.651Z,25.30
2022-10-20T12:18:32.812Z,25.80
2022-10-20T12:21:08.471Z,25.90
2022-10-20T12:23:45.080Z,26.10
2022-10-20T12:26:32.876Z,26.70
2022-10-20T12:29:31.493Z,26.30
2022-10-20T12:32:26.069Z,26.90
2022-10-20T12:34:55.932Z,27.00
2022-10-20T12:37:25.707Z,25.50
2022-10-20T12:39:55.066Z,25.60
2022-10-20T12:42:33.845Z,25.90
2022-10-20T12:45:05.258Z,26.30
2022-10-20T12:47:37.153Z,26.30
2022-10-20T12:50:23.085Z,25.40
2022-10-20T12:52:49.942Z,24.40
2022-10-20T12:55:31.760Z,23.50
2022-10-20T12:58:18.388Z,23.00
2022-10-20T13:00:47.936Z,22.80
2022-10-20T13:03:47.618Z,22.80
2022-10-20T13:06:23.744Z,23.60
2022-10-20T13:09:02.963Z,23.70
2022-10-20T13:11:37.557Z,24.20
2022-10-20T13:14:24.789Z,25.00
2022-10-20T13:17:16.067Z,26.10
2022-10-20T13:20:16.285Z,26.60
2022-10-20T13:22:50.937Z,26.10
2022-10-20T13:25:36.987Z,26.80
2022-10-20T13:28:18.374Z,27.00
2022-10-20T13:30:52.125Z,26.60
2022-10-20T13:34:02.780Z,26.10
2022-10-20T13:36:39.865Z,25.70
2022-10-20T13:39:10.659Z,26.20
2022-10-20T13:41:45.782Z,25.60
2022-10-20T13:44:47.010Z,25.00
2022-10-20T13:47:44.638Z,24.80
2022-10-20T13:52:50.023Z,24.50
2022-10-20T13:55:25.060Z,24.40
2022-10-20T13:57:56.920Z,24.40
2022-10-20T14:00:33.062Z,24.40
2022-10-20T14:03:19.172Z,23.70
2022-10-20T14:05:46.994Z,22.80
2022-10-20T14:08:17.826Z,22.30
2022-10-20T14:11:04.669Z,22.10
2022-10-20T14:13:34.416Z,21.80
2022-10-20T14:16:04.772Z,21.60
2022-10-20T14:18:35.712Z,21.50
2022-10-20T14:21:17.616Z,21.30
2022-10-20T14:23:49.161Z,21.20
2022-10-20T14:26:21.336Z,21.40
2022-10-20T14:28:50.906Z,21.50
2022-10-20T14:31:22.527Z,21.60
2022-10-20T14:33:51.701Z,21.40
2022-10-20T14:39:01.224Z,21.40
2022-10-20T14:41:32.264Z,21.40
2022-10-20T14:44:09.310Z,21.40
2022-10-20T14:46:45.091Z,21.30
2022-10-20T14:49:33.998Z,21.10
2022-10-20T14:52:21.309Z,21.10
2022-10-20T14:54:50.300Z,21.20
2022-10-20T14:57:18.551Z,21.10
2022-10-20T15:00:14.970Z,21.00
2022-10-20T15:02:43.029Z,21.10
2022-10-20T15:05:41.382Z,21.10
2022-10-20T15:08:19.642Z,21.00
2022-10-20T15:10:48.111Z,21.10
2022-10-20T15:13:28.292Z,21.10
2022-10-20T15:15:56.983Z,21.10
2022-10-20T15:18:24.915Z,21.00
2022-10-20T15:20:53.583Z,21.00
2022-10-20T15:23:22.536Z,21.10
2022-10-20T15:26:05.803Z,21.10
2022-10-20T15:28:52.841Z,21.10
2022-10-20T15:31:26.605Z,20.90
2022-10-20T15:33:54.984Z,21.00
2022-10-20T15:36:33.064Z,21.00
2022-10-20T15:39:00.854Z,21.00
2022-10-20T15:41:33.442Z,20.90
2022-10-20T15:44:15.882Z,20.90
2022-10-20T15:46:44.836Z,20.90
2022-10-20T15:49:12.621Z,20.80
2022-10-20T15:51:43.191Z,20.80
2022-10-20T15:54:15.345Z,20.80
2022-10-20T15:56:42.847Z,20.70
2022-10-20T15:59:09.722Z,20.60
2022-10-20T16:01:36.798Z,20.50
2022-10-20T16:04:13.683Z,20.60
2022-10-20T16:06:40.651Z,20.60
2022-10-20T16:09:10.697Z,20.50
2022-10-20T16:11:40.464Z,20.50
2022-10-20T16:14:07.492Z,20.40
2022-10-20T16:16:34.551Z,20.50
2022-10-20T16:19:02.434Z,20.30
2022-10-20T16:21:29.423Z,20.20
2022-10-20T16:23:57.372Z,20.10
2022-10-20T16:26:25.183Z,19.90
2022-10-20T16:28:52.212Z,19.90
2022-10-20T16:31:19.524Z,20.00
2022-10-20T16:33:47.313Z,20.20
2022-10-20T16:36:16.167Z,20.30
2022-10-20T16:38:43.598Z,20.10
2022-10-20T16:41:15.449Z,20.20
2022-10-20T16:43:44.945Z,19.90
2022-10-20T16:46:13.068Z,19.80
2022-10-20T16:48:42.621Z,19.70
2022-10-20T16:51:12.863Z,19.50
2022-10-20T16:53:40.567Z,19.50
2022-10-20T16:56:08.228Z,19.60
2022-10-20T16:58:36.090Z,19.50
2022-10-20T17:01:06.422Z,19.40
2022-10-20T17:03:33.542Z,19.30
2022-10-20T17:06:04.393Z,19.30
2022-10-20T17:08:34.088Z,19.40
2022-10-20T17:11:09.364Z,19.40
2022-10-20T17:13:37.814Z,19.50
2022-10-20T17:16:11.365Z,19.50
2022-10-20T17:18:39.208Z,19.40
2022-10-20T17:21:06.883Z,19.30
2022-10-20T17:23:37.450Z,19.30
2022-10-20T17:26:09.802Z,19.20
2022-10-20T17:28:37.752Z,19.20
2022-10-20T17:31:09.361Z,19.10
2022-10-20T17:33:37.307Z,19.20
2022-10-20T17:36:05.085Z,19.20
2022-10-20T17:38:34.198Z,19.10
2022-10-20T17:41:05.624Z,19.00
2022-10-20T17:43:33.051Z,19.00
2022-10-20T17:46:02.181Z,19.00
2022-10-20T17:48:30.177Z,18.90
2022-10-20T17:51:03.533Z,19.00
2022-10-20T17:53:39.925Z,19.10
2022-10-20T17:56:19.540Z,19.10
2022-10-20T17:58:49.232Z,19.10
2022-10-20T18:01:21.937Z,19.10
2022-10-20T18:03:53.637Z,19.20
2022-10-20T18:06:22.735Z,19.20
2022-10-20T18:08:52.270Z,19.30
2022-10-20T18:11:21.632Z,19.20
2022-10-20T18:13:48.678Z,19.20
2022-10-20T18:16:19.052Z,19.10
2022-10-20T18:18:46.730Z,19.00
2022-10-20T18:21:15.342Z,18.90
2022-10-20T18:23:45.428Z,18.90
2022-10-20T18:26:15.456Z,18.70
2022-10-20T18:28:47.315Z,18.70
2022-10-20T18:31:23.873Z,18.70
2022-10-20T18:33:56.277Z,18.70
2022-10-20T18:36:25.235Z,18.70
2022-10-20T18:38:53.439Z,18.70
2022-10-20T18:41:26.841Z,18.60
2022-10-20T18:44:03.221Z,18.50
2022-10-20T18:46:32.845Z,18.40
2022-10-20T18:49:03.336Z,18.50
2022-10-20T18:51:32.690Z,18.50
2022-10-20T18:54:01.070Z,18.40
2022-10-20T18:56:29.959Z,18.50
2022-10-20T18:59:01.436Z,18.40
2022-10-20T19:01:31.685Z,18.40
2022-10-20T19:03:59.817Z,18.40
2022-10-20T19:06:31.777Z,18.40
2022-10-20T19:09:01.502Z,18.60
2022-10-20T19:11:30.947Z,18.50
2022-10-20T19:14:00.263Z,18.50
2022-10-20T19:16:31.106Z,18.60
2022-10-20T19:19:00.957Z,18.50
2022-10-20T19:21:28.919Z,18.50
2022-10-20T19:24:21.533Z,18.40
2022-10-20T19:27:24.470Z,18.40
2022-10-20T19:29:44.589Z,18.30
2022-10-20T19:32:12.664Z,18.30
2022-10-20T19:34:40.971Z,18.30
2022-10-20T19:37:08.713Z,18.40
2022-10-20T19:39:39.658Z,18.50
2022-10-20T19:42:07.719Z,18.30
2022-10-20T19:44:34.724Z,18.30
2022-10-20T19:47:01.845Z,18.30
2022-10-20T19:49:29.009Z,18.30
2022-10-20T19:51:56.873Z,18.30
2022-10-20T19:54:24.781Z,18.50
2022-10-20T19:56:51.866Z,18.40
2022-10-20T19:59:18.705Z,18.20
2022-10-20T20:01:45.563Z,18.10
2022-10-20T20:04:12.474Z,18.10
2022-10-20T20:06:39.548Z,18.30
2022-10-20T20:09:15.719Z,18.20
2022-10-20T20:11:43.470Z,18.30
2022-10-20T20:14:15.740Z,18.30
2022-10-20T20:16:45.898Z,18.20
2022-10-20T20:19:14.464Z,18.30
2022-10-20T20:21:41.397Z,18.40
2022-10-20T20:24:08.125Z,18.40
2022-10-20T20:26:36.596Z,18.50
2022-10-20T20:29:04.529Z,18.50
2022-10-20T20:31:32.043Z,18.30
2022-10-20T20:33:58.817Z,18.20
2022-10-20T20:36:27.546Z,18.40
2022-10-20T20:38:59.105Z,18.30
2022-10-20T20:41:29.991Z,18.30
2022-10-20T20:44:08.597Z,18.50
2022-10-20T20:46:36.473Z,18.50
2022-10-20T20:49:03.877Z,18.50
2022-10-20T20:51:33.523Z,18.60
2022-10-20T20:54:01.478Z,18.70
2022-10-20T20:56:28.377Z,18.60
2022-10-20T20:58:57.098Z,18.60
2022-10-20T21:01:28.773Z,18.60
2022-10-20T21:03:59.456Z,18.70
2022-10-20T21:07:00.207Z,18.60
2022-10-20T21:09:15.213Z,18.40
2022-10-20T21:11:42.904Z,18.40
2022-10-20T21:14:09.926Z,18.30
2022-10-20T21:16:37.528Z,18.20
2022-10-20T21:19:09.409Z,18.20
2022-10-20T21:21:39.204Z,18.30
2022-10-20T21:24:06.553Z,18.50
2022-10-20T21:26:33.542Z,18.60
2022-10-20T21:29:00.696Z,18.50
2022-10-20T21:31:29.097Z,18.40
2022-10-20T21:34:00.092Z,18.50
2022-10-20T21:36:29.172Z,18.60
2022-10-20T21:38:56.256Z,18.50
2022-10-20T21:41:25.949Z,18.20
2022-10-20T21:43:54.973Z,18.20
2022-10-20T21:46:28.550Z,18.10
2022-10-20T21:49:00.883Z,18.10
2022-10-20T21:51:32.129Z,18.00
2022-10-20T21:54:03.303Z,17.90
2022-10-20T21:56:36.289Z,17.80
2022-10-20T21:59:16.624Z,17.70
2022-10-20T22:01:45.161Z,17.40
2022-10-20T22:04:12.406Z,17.30
2022-10-20T22:06:40.843Z,17.40
2022-10-20T22:09:08.494Z,17.40
2022-10-20T22:11:38.903Z,17.60
2022-10-20T22:14:06.581Z,17.70
2022-10-20T22:16:36.169Z,18.10
2022-10-20T22:19:07.345Z,18.20
2022-10-20T22:21:40.416Z,18.10
2022-10-20T22:24:07.834Z,18.10
2022-10-20T22:26:35.859Z,17.90
2022-10-20T22:29:04.616Z,17.90
2022-10-20T22:31:32.793Z,17.90
2022-10-20T22:33:59.789Z,17.90
2022-10-20T22:36:27.502Z,17.70
2022-10-20T22:38:55.064Z,17.50
2022-10-20T22:41:22.158Z,17.40
2022-10-20T22:43:50.393Z,17.50
2022-10-20T22:46:17.357Z,17.70
2022-10-20T22:48:44.341Z,17.80
2022-10-20T22:51:11.798Z,17.80
2022-10-20T22:53:39.697Z,17.70
2022-10-20T22:56:13.744Z,17.50
2022-10-20T22:58:41.105Z,17.60
2022-10-20T23:01:20.330Z,17.60
2022-10-20T23:03:48.509Z,17.50
2022-10-20T23:06:21.510Z,17.30
2022-10-20T23:08:51.568Z,17.30
2022-10-20T23:11:19.030Z,17.30
2022-10-20T23:13:47.280Z,17.30
2022-10-20T23:16:14.965Z,17.20
2022-10-20T23:18:42.353Z,17.10
2022-10-20T23:21:09.258Z,17.20
2022-10-20T23:23:39.099Z,17.10
2022-10-20T23:26:07.084Z,17.10
2022-10-20T23:28:35.180Z,17.10
2022-10-20T23:31:07.207Z,16.90
2022-10-20T23:33:35.214Z,16.90
2022-10-20T23:36:02.152Z,16.80
2022-10-20T23:38:29.110Z,16.70
2022-10-20T23:40:56.954Z,16.80
2022-10-20T23:43:24.108Z,16.80
2022-10-20T23:45:51.930Z,16.70
2022-10-20T23:48:18.942Z,16.70
2022-10-20T23:50:46.109Z,16.70
2022-10-20T23:53:13.502Z,16.60
2022-10-20T23:55:43.746Z,16.70
2022-10-20T23:58:12.027Z,16.70
